Aérodrome :
LOGIN :

S'inscrire | Disclaimer

   EN    FR    IT 

 










Légende :    VFR   VFR Marginal   IFR   IFR Intensif   IFR Très Intensif
Visi : 
Plafond : 
>= 8 km
>= 3000ft
5 à 8 km
1000 à 3000 ft
1500m à 5 km
500 à 1000 ft
800 à 1500m
200 à 500 ft
< 800m
< 200 ft
Symboles :   Orages  Brouillard  Fortes neiges  Fortes précipitations  Vent > 20 kt
SIGMETs :   Divers  Orages  Givrage  Turbulence  Onde Orograph.  Cendres Volcan.






- Altitude de l'aérodrome : 128 ft


ETND - Diepholz

DERNIER METAR :
  • 160920Z 22009KT 9999 FEW013 BKN022 13/11 Q1009 WHT

METARs EXPIRÉS :
  • 160820Z 23010KT 9999 SCT013 BKN023 BKN060 13/11 Q1009 WHT
  • 160742Z 23007KT 8000 -RA SCT010 BKN022 BKN065 13/12 Q1009 WHT
  • 160719Z 22008KT 7000 -RA SCT013 BKN022 BKN055 12/12 Q1009 WHT

TAF TAF ETND
Valide du 16 à 08h jusqu'au 16 à 17h UTC


160720Z 1608/1617 25010KT 8000 NSW SCT005 BKN020
TEMPO 1608/1610 27010KT 4000 RADZ BKN010
BECMG 1609/1611 23010G20KT 9999 NSW SCT010 BKN050
BECMG 1615/1617 20010KT 9999 NSW SCT010 BKN020 BY ETGL



MET'MAP, la Météo Aéronautique d'un coup d'oeil ! - Copyright ORBIFLY Décembre 2007 - Disclaimer

ORBIFLY MET'MAP TEAM :

Programmation & Développement : Alexandra Zaïnal
Conception & Développement : Baudouin d'Aumeries
Co-Programmation & Développement : Marc-Olivier Méhu
Soutien technique & logistique : Manuel Goepfert

Contact : metmap@orbifly.com




SOURCES & CREDITS :

   NOAA